sensor_id;sensor_type;location;lat;lon;timestamp;temperature;humidity
3684;DHT22;1858;48.716;9.648;2023-08-17T00:02:31;20.10;99.90
3684;DHT22;1858;48.716;9.648;2023-08-17T00:05:16;20.00;99.90
3684;DHT22;1858;48.716;9.648;2023-08-17T00:08:02;20.00;99.90
3684;DHT22;1858;48.716;9.648;2023-08-17T00:10:47;20.00;99.90
3684;DHT22;1858;48.716;9.648;2023-08-17T00:13:33;19.90;1.00
3684;DHT22;1858;48.716;9.648;2023-08-17T00:16:19;19.80;1.00
3684;DHT22;1858;48.716;9.648;2023-08-17T00:19:04;19.80;1.00
3684;DHT22;1858;48.716;9.648;2023-08-17T00:21:50;19.80;1.00
3684;DHT22;1858;48.716;9.648;2023-08-17T00:24:37;19.80;1.00
3684;DHT22;1858;48.716;9.648;2023-08-17T00:27:22;19.70;1.00
3684;DHT22;1858;48.716;9.648;2023-08-17T00:30:08;19.70;1.00
3684;DHT22;1858;48.716;9.648;2023-08-17T00:32:54;19.60;1.00
3684;DHT22;1858;48.716;9.648;2023-08-17T00:35:40;19.60;1.00
3684;DHT22;1858;48.716;9.648;2023-08-17T00:38:25;19.60;1.00
3684;DHT22;1858;48.716;9.648;2023-08-17T00:41:11;19.60;1.00
3684;DHT22;1858;48.716;9.648;2023-08-17T00:43:56;19.60;1.00
3684;DHT22;1858;48.716;9.648;2023-08-17T00:46:42;19.50;1.00
3684;DHT22;1858;48.716;9.648;2023-08-17T00:49:27;19.50;16.70
3684;DHT22;1858;48.716;9.648;2023-08-17T00:52:13;19.40;29.00
3684;DHT22;1858;48.716;9.648;2023-08-17T00:54:58;19.50;99.90
3684;DHT22;1858;48.716;9.648;2023-08-17T00:57:46;19.40;99.90
3684;DHT22;1858;48.716;9.648;2023-08-17T01:00:31;19.40;99.90
3684;DHT22;1858;48.716;9.648;2023-08-17T01:03:17;19.40;99.90
3684;DHT22;1858;48.716;9.648;2023-08-17T01:06:04;19.30;99.90
3684;DHT22;1858;48.716;9.648;2023-08-17T01:08:49;19.30;99.90
3684;DHT22;1858;48.716;9.648;2023-08-17T01:17:52;19.20;99.90
3684;DHT22;1858;48.716;9.648;2023-08-17T01:20:35;19.20;99.90
3684;DHT22;1858;48.716;9.648;2023-08-17T01:23:21;19.20;99.90
3684;DHT22;1858;48.716;9.648;2023-08-17T01:26:07;19.20;99.90
3684;DHT22;1858;48.716;9.648;2023-08-17T01:28:53;19.20;99.90
3684;DHT22;1858;48.716;9.648;2023-08-17T01:31:47;19.20;99.90
3684;DHT22;1858;48.716;9.648;2023-08-17T01:34:32;19.10;99.90
3684;DHT22;1858;48.716;9.648;2023-08-17T01:37:19;19.10;99.90
3684;DHT22;1858;48.716;9.648;2023-08-17T01:40:06;19.00;99.90
3684;DHT22;1858;48.716;9.648;2023-08-17T01:42:52;19.00;99.90
3684;DHT22;1858;48.716;9.648;2023-08-17T01:45:39;19.00;99.90
3684;DHT22;1858;48.716;9.648;2023-08-17T01:48:24;18.90;99.90
3684;DHT22;1858;48.716;9.648;2023-08-17T01:51:10;18.90;99.90
3684;DHT22;1858;48.716;9.648;2023-08-17T01:53:56;18.90;99.90
3684;DHT22;1858;48.716;9.648;2023-08-17T01:56:42;18.80;99.90
3684;DHT22;1858;48.716;9.648;2023-08-17T01:59:27;18.80;99.90
3684;DHT22;1858;48.716;9.648;2023-08-17T02:02:13;18.80;99.90
3684;DHT22;1858;48.716;9.648;2023-08-17T02:04:59;18.80;99.90
3684;DHT22;1858;48.716;9.648;2023-08-17T02:07:45;18.80;99.90
3684;DHT22;1858;48.716;9.648;2023-08-17T02:10:31;18.80;99.90
3684;DHT22;1858;48.716;9.648;2023-08-17T02:13:17;18.80;99.90
3684;DHT22;1858;48.716;9.648;2023-08-17T02:16:04;18.70;99.90
3684;DHT22;1858;48.716;9.648;2023-08-17T02:18:50;18.70;99.90
3684;DHT22;1858;48.716;9.648;2023-08-17T02:21:36;18.70;99.90
3684;DHT22;1858;48.716;9.648;2023-08-17T02:24:21;18.60;99.90
3684;DHT22;1858;48.716;9.648;2023-08-17T02:27:08;18.60;99.90
3684;DHT22;1858;48.716;9.648;2023-08-17T02:29:54;18.60;99.90
3684;DHT22;1858;48.716;9.648;2023-08-17T02:32:40;18.60;99.90
3684;DHT22;1858;48.716;9.648;2023-08-17T02:35:26;18.60;99.90
3684;DHT22;1858;48.716;9.648;2023-08-17T02:38:11;18.50;99.90
3684;DHT22;1858;48.716;9.648;2023-08-17T02:40:57;18.50;1.00
3684;DHT22;1858;48.716;9.648;2023-08-17T02:43:43;18.50;1.00
3684;DHT22;1858;48.716;9.648;2023-08-17T02:46:28;18.50;1.00
3684;DHT22;1858;48.716;9.648;2023-08-17T02:49:14;18.40;99.90
3684;DHT22;1858;48.716;9.648;2023-08-17T02:51:59;18.40;99.90
3684;DHT22;1858;48.716;9.648;2023-08-17T02:54:45;18.30;99.90
3684;DHT22;1858;48.716;9.648;2023-08-17T02:57:31;18.30;1.00
3684;DHT22;1858;48.716;9.648;2023-08-17T03:00:16;18.30;99.90
3684;DHT22;1858;48.716;9.648;2023-08-17T03:03:02;18.30;1.00
3684;DHT22;1858;48.716;9.648;2023-08-17T03:05:47;18.30;99.90
3684;DHT22;1858;48.716;9.648;2023-08-17T03:08:33;18.30;1.00
3684;DHT22;1858;48.716;9.648;2023-08-17T03:11:20;18.20;1.00
3684;DHT22;1858;48.716;9.648;2023-08-17T03:14:06;18.20;1.00
3684;DHT22;1858;48.716;9.648;2023-08-17T03:19:56;18.20;1.00
3684;DHT22;1858;48.716;9.648;2023-08-17T03:25:53;18.10;1.00
3684;DHT22;1858;48.716;9.648;2023-08-17T03:28:38;18.10;1.00
3684;DHT22;1858;48.716;9.648;2023-08-17T03:31:24;18.10;1.00
3684;DHT22;1858;48.716;9.648;2023-08-17T03:34:10;18.10;1.00
3684;DHT22;1858;48.716;9.648;2023-08-17T03:36:56;18.00;1.00
3684;DHT22;1858;48.716;9.648;2023-08-17T03:39:41;18.00;1.00
3684;DHT22;1858;48.716;9.648;2023-08-17T03:42:27;18.00;1.00
3684;DHT22;1858;48.716;9.648;2023-08-17T03:45:12;18.00;1.00
3684;DHT22;1858;48.716;9.648;2023-08-17T03:47:58;17.90;1.00
3684;DHT22;1858;48.716;9.648;2023-08-17T03:50:44;17.90;1.00
3684;DHT22;1858;48.716;9.648;2023-08-17T03:53:29;17.80;1.00
3684;DHT22;1858;48.716;9.648;2023-08-17T03:56:15;17.80;1.00
3684;DHT22;1858;48.716;9.648;2023-08-17T03:59:01;17.80;1.00
3684;DHT22;1858;48.716;9.648;2023-08-17T04:01:46;17.80;1.00
3684;DHT22;1858;48.716;9.648;2023-08-17T04:07:37;17.80;1.00
3684;DHT22;1858;48.716;9.648;2023-08-17T04:10:22;17.80;1.00
3684;DHT22;1858;48.716;9.648;2023-08-17T04:16:13;17.80;1.00
3684;DHT22;1858;48.716;9.648;2023-08-17T04:18:59;17.90;1.00
3684;DHT22;1858;48.716;9.648;2023-08-17T04:21:45;18.00;1.00
3684;DHT22;1858;48.716;9.648;2023-08-17T04:24:30;18.00;1.00
3684;DHT22;1858;48.716;9.648;2023-08-17T04:27:16;18.10;1.00
3684;DHT22;1858;48.716;9.648;2023-08-17T04:30:02;18.20;1.00
3684;DHT22;1858;48.716;9.648;2023-08-17T04:32:48;18.30;1.00
3684;DHT22;1858;48.716;9.648;2023-08-17T04:35:36;18.40;1.00
3684;DHT22;1858;48.716;9.648;2023-08-17T04:38:21;18.50;1.00
3684;DHT22;1858;48.716;9.648;2023-08-17T04:41:07;18.60;99.90
3684;DHT22;1858;48.716;9.648;2023-08-17T04:43:53;18.60;99.90
3684;DHT22;1858;48.716;9.648;2023-08-17T04:46:38;18.70;99.90
3684;DHT22;1858;48.716;9.648;2023-08-17T04:49:25;18.90;99.90
3684;DHT22;1858;48.716;9.648;2023-08-17T04:52:11;19.00;99.90
3684;DHT22;1858;48.716;9.648;2023-08-17T04:54:56;19.00;99.90
3684;DHT22;1858;48.716;9.648;2023-08-17T04:57:42;19.20;86.80
3684;DHT22;1858;48.716;9.648;2023-08-17T05:00:28;19.20;1.00
3684;DHT22;1858;48.716;9.648;2023-08-17T05:03:13;19.30;1.00
3684;DHT22;1858;48.716;9.648;2023-08-17T05:05:59;19.40;1.00
3684;DHT22;1858;48.716;9.648;2023-08-17T05:08:45;19.50;1.00
3684;DHT22;1858;48.716;9.648;2023-08-17T05:11:30;19.60;1.00
3684;DHT22;1858;48.716;9.648;2023-08-17T05:14:16;19.70;1.00
3684;DHT22;1858;48.716;9.648;2023-08-17T05:17:02;19.80;1.00
3684;DHT22;1858;48.716;9.648;2023-08-17T05:19:48;20.00;1.00
3684;DHT22;1858;48.716;9.648;2023-08-17T05:22:34;20.10;1.00
3684;DHT22;1858;48.716;9.648;2023-08-17T05:25:20;20.30;99.90
3684;DHT22;1858;48.716;9.648;2023-08-17T05:28:06;20.40;99.90
3684;DHT22;1858;48.716;9.648;2023-08-17T05:30:53;20.60;99.90
3684;DHT22;1858;48.716;9.648;2023-08-17T05:33:39;20.70;99.90
3684;DHT22;1858;48.716;9.648;2023-08-17T05:36:28;20.90;1.00
3684;DHT22;1858;48.716;9.648;2023-08-17T05:39:13;21.00;1.00
3684;DHT22;1858;48.716;9.648;2023-08-17T05:41:59;21.10;99.90
3684;DHT22;1858;48.716;9.648;2023-08-17T05:44:44;21.00;99.90
3684;DHT22;1858;48.716;9.648;2023-08-17T05:47:30;21.00;99.90
3684;DHT22;1858;48.716;9.648;2023-08-17T05:50:16;21.00;99.90
3684;DHT22;1858;48.716;9.648;2023-08-17T05:53:01;21.00;99.90
3684;DHT22;1858;48.716;9.648;2023-08-17T05:55:47;21.00;99.90
3684;DHT22;1858;48.716;9.648;2023-08-17T05:58:32;21.00;99.90
3684;DHT22;1858;48.716;9.648;2023-08-17T06:01:21;21.00;99.90
3684;DHT22;1858;48.716;9.648;2023-08-17T06:04:06;21.00;99.90
3684;DHT22;1858;48.716;9.648;2023-08-17T06:06:52;21.10;99.90
3684;DHT22;1858;48.716;9.648;2023-08-17T06:09:38;21.20;99.90
3684;DHT22;1858;48.716;9.648;2023-08-17T06:12:24;21.30;99.90
3684;DHT22;1858;48.716;9.648;2023-08-17T06:15:09;21.50;99.90
3684;DHT22;1858;48.716;9.648;2023-08-17T06:17:55;22.00;99.90
3684;DHT22;1858;48.716;9.648;2023-08-17T06:20:41;22.30;23.00
3684;DHT22;1858;48.716;9.648;2023-08-17T06:23:27;22.70;1.00
3684;DHT22;1858;48.716;9.648;2023-08-17T06:26:13;22.80;99.90
3684;DHT22;1858;48.716;9.648;2023-08-17T06:28:58;22.90;99.90
3684;DHT22;1858;48.716;9.648;2023-08-17T06:31:44;23.10;99.90
3684;DHT22;1858;48.716;9.648;2023-08-17T06:34:30;23.70;99.90
3684;DHT22;1858;48.716;9.648;2023-08-17T06:37:15;24.10;99.90
3684;DHT22;1858;48.716;9.648;2023-08-17T06:40:02;24.30;11.70
3684;DHT22;1858;48.716;9.648;2023-08-17T06:42:48;24.50;1.00
3684;DHT22;1858;48.716;9.648;2023-08-17T06:45:34;24.50;1.00
3684;DHT22;1858;48.716;9.648;2023-08-17T06:48:40;24.40;1.00
3684;DHT22;1858;48.716;9.648;2023-08-17T06:51:25;24.30;1.00
3684;DHT22;1858;48.716;9.648;2023-08-17T06:54:11;24.50;1.00
3684;DHT22;1858;48.716;9.648;2023-08-17T06:56:58;24.40;1.00
3684;DHT22;1858;48.716;9.648;2023-08-17T06:59:43;24.50;1.00
3684;DHT22;1858;48.716;9.648;2023-08-17T07:02:30;24.80;1.00
3684;DHT22;1858;48.716;9.648;2023-08-17T07:05:16;25.60;1.00
3684;DHT22;1858;48.716;9.648;2023-08-17T07:08:04;25.80;1.00
3684;DHT22;1858;48.716;9.648;2023-08-17T07:10:50;25.80;1.00
3684;DHT22;1858;48.716;9.648;2023-08-17T07:13:35;25.70;1.00
3684;DHT22;1858;48.716;9.648;2023-08-17T07:16:21;25.70;1.00
3684;DHT22;1858;48.716;9.648;2023-08-17T07:19:07;25.60;1.00
3684;DHT22;1858;48.716;9.648;2023-08-17T07:21:52;25.70;1.00
3684;DHT22;1858;48.716;9.648;2023-08-17T07:24:38;26.00;1.00
3684;DHT22;1858;48.716;9.648;2023-08-17T07:27:23;26.40;99.90
3684;DHT22;1858;48.716;9.648;2023-08-17T07:30:10;27.30;99.90
3684;DHT22;1858;48.716;9.648;2023-08-17T07:32:56;27.90;99.90
3684;DHT22;1858;48.716;9.648;2023-08-17T07:35:41;28.20;99.90
3684;DHT22;1858;48.716;9.648;2023-08-17T07:38:27;28.50;99.90
3684;DHT22;1858;48.716;9.648;2023-08-17T07:41:13;29.10;99.90
3684;DHT22;1858;48.716;9.648;2023-08-17T07:43:58;29.30;99.90
3684;DHT22;1858;48.716;9.648;2023-08-17T07:46:44;29.50;99.90
3684;DHT22;1858;48.716;9.648;2023-08-17T07:49:30;30.50;99.90
3684;DHT22;1858;48.716;9.648;2023-08-17T07:52:16;32.60;41.40
3684;DHT22;1858;48.716;9.648;2023-08-17T07:55:01;34.60;1.00
3684;DHT22;1858;48.716;9.648;2023-08-17T07:57:48;36.10;1.00
3684;DHT22;1858;48.716;9.648;2023-08-17T08:00:33;37.60;1.00
3684;DHT22;1858;48.716;9.648;2023-08-17T08:06:24;40.10;1.00
3684;DHT22;1858;48.716;9.648;2023-08-17T08:09:09;41.40;1.00
3684;DHT22;1858;48.716;9.648;2023-08-17T08:11:55;42.10;1.00
3684;DHT22;1858;48.716;9.648;2023-08-17T08:14:41;42.60;99.90
3684;DHT22;1858;48.716;9.648;2023-08-17T08:17:26;43.50;99.90
3684;DHT22;1858;48.716;9.648;2023-08-17T08:20:12;43.90;99.90
3684;DHT22;1858;48.716;9.648;2023-08-17T08:22:57;43.60;99.90
3684;DHT22;1858;48.716;9.648;2023-08-17T08:25:43;43.20;99.90
3684;DHT22;1858;48.716;9.648;2023-08-17T08:28:29;43.20;99.90
3684;DHT22;1858;48.716;9.648;2023-08-17T08:34:20;43.70;99.90
3684;DHT22;1858;48.716;9.648;2023-08-17T08:37:06;44.00;99.90
3684;DHT22;1858;48.716;9.648;2023-08-17T08:39:52;44.50;99.90
3684;DHT22;1858;48.716;9.648;2023-08-17T08:42:38;45.20;99.90
3684;DHT22;1858;48.716;9.648;2023-08-17T08:45:24;45.60;99.90
3684;DHT22;1858;48.716;9.648;2023-08-17T08:48:11;46.00;99.90
3684;DHT22;1858;48.716;9.648;2023-08-17T08:50:57;46.50;99.90
3684;DHT22;1858;48.716;9.648;2023-08-17T08:53:44;46.90;99.90
3684;DHT22;1858;48.716;9.648;2023-08-17T08:56:31;46.90;99.90
3684;DHT22;1858;48.716;9.648;2023-08-17T08:59:18;47.00;99.90
3684;DHT22;1858;48.716;9.648;2023-08-17T09:02:04;47.10;99.90
3684;DHT22;1858;48.716;9.648;2023-08-17T09:04:50;46.90;99.90
3684;DHT22;1858;48.716;9.648;2023-08-17T09:07:36;47.10;99.90
3684;DHT22;1858;48.716;9.648;2023-08-17T09:10:22;47.30;99.90
3684;DHT22;1858;48.716;9.648;2023-08-17T09:13:09;47.50;99.90
3684;DHT22;1858;48.716;9.648;2023-08-17T09:15:56;47.30;99.90
3684;DHT22;1858;48.716;9.648;2023-08-17T09:18:42;47.30;99.90
3684;DHT22;1858;48.716;9.648;2023-08-17T09:21:30;47.50;99.90
3684;DHT22;1858;48.716;9.648;2023-08-17T09:24:15;47.80;99.90
3684;DHT22;1858;48.716;9.648;2023-08-17T09:27:01;48.30;99.90
3684;DHT22;1858;48.716;9.648;2023-08-17T09:29:47;48.80;99.90
3684;DHT22;1858;48.716;9.648;2023-08-17T09:32:33;48.70;99.90
3684;DHT22;1858;48.716;9.648;2023-08-17T09:35:18;48.60;99.90
3684;DHT22;1858;48.716;9.648;2023-08-17T09:38:04;48.80;99.90
3684;DHT22;1858;48.716;9.648;2023-08-17T09:43:55;48.90;99.90
3684;DHT22;1858;48.716;9.648;2023-08-17T09:46:44;48.90;99.90
3684;DHT22;1858;48.716;9.648;2023-08-17T09:49:31;48.60;99.90
3684;DHT22;1858;48.716;9.648;2023-08-17T09:52:23;48.50;99.90
3684;DHT22;1858;48.716;9.648;2023-08-17T09:58:16;48.90;99.90
3684;DHT22;1858;48.716;9.648;2023-08-17T10:01:07;49.00;99.90
3684;DHT22;1858;48.716;9.648;2023-08-17T10:03:50;48.80;99.90
3684;DHT22;1858;48.716;9.648;2023-08-17T10:06:36;48.50;99.90
3684;DHT22;1858;48.716;9.648;2023-08-17T10:09:24;48.30;99.90
3684;DHT22;1858;48.716;9.648;2023-08-17T10:12:12;48.30;99.90
3684;DHT22;1858;48.716;9.648;2023-08-17T10:15:06;48.50;99.90
3684;DHT22;1858;48.716;9.648;2023-08-17T10:17:55;48.80;99.90
3684;DHT22;1858;48.716;9.648;2023-08-17T10:20:42;49.10;99.90
3684;DHT22;1858;48.716;9.648;2023-08-17T10:23:29;49.30;99.90
3684;DHT22;1858;48.716;9.648;2023-08-17T10:26:15;49.40;99.90
3684;DHT22;1858;48.716;9.648;2023-08-17T10:29:01;49.30;99.90
3684;DHT22;1858;48.716;9.648;2023-08-17T10:34:52;48.70;99.90
3684;DHT22;1858;48.716;9.648;2023-08-17T10:37:38;48.40;99.90
3684;DHT22;1858;48.716;9.648;2023-08-17T10:40:27;48.10;99.90
3684;DHT22;1858;48.716;9.648;2023-08-17T10:43:13;47.80;99.90
3684;DHT22;1858;48.716;9.648;2023-08-17T10:46:14;47.20;99.90
3684;DHT22;1858;48.716;9.648;2023-08-17T10:48:46;46.40;99.90
3684;DHT22;1858;48.716;9.648;2023-08-17T10:51:33;45.70;99.90
3684;DHT22;1858;48.716;9.648;2023-08-17T10:54:20;45.30;99.90
3684;DHT22;1858;48.716;9.648;2023-08-17T11:00:19;44.90;99.90
3684;DHT22;1858;48.716;9.648;2023-08-17T11:03:08;44.80;99.90
3684;DHT22;1858;48.716;9.648;2023-08-17T11:05:55;44.70;99.90
3684;DHT22;1858;48.716;9.648;2023-08-17T11:08:54;44.80;99.90
3684;DHT22;1858;48.716;9.648;2023-08-17T11:11:40;44.70;99.90
3684;DHT22;1858;48.716;9.648;2023-08-17T11:14:26;44.80;99.90
3684;DHT22;1858;48.716;9.648;2023-08-17T11:17:12;44.80;99.90
3684;DHT22;1858;48.716;9.648;2023-08-17T11:19:58;44.70;99.90
3684;DHT22;1858;48.716;9.648;2023-08-17T11:22:45;44.80;99.90
3684;DHT22;1858;48.716;9.648;2023-08-17T11:25:31;44.90;99.90
3684;DHT22;1858;48.716;9.648;2023-08-17T11:28:17;45.00;99.90
3684;DHT22;1858;48.716;9.648;2023-08-17T11:31:03;45.00;99.90
3684;DHT22;1858;48.716;9.648;2023-08-17T11:33:49;44.50;99.90
3684;DHT22;1858;48.716;9.648;2023-08-17T11:36:35;43.60;99.90
3684;DHT22;1858;48.716;9.648;2023-08-17T11:39:20;42.90;99.90
3684;DHT22;1858;48.716;9.648;2023-08-17T11:42:06;42.40;99.90
3684;DHT22;1858;48.716;9.648;2023-08-17T11:44:52;41.80;99.90
3684;DHT22;1858;48.716;9.648;2023-08-17T11:47:38;41.30;99.90
3684;DHT22;1858;48.716;9.648;2023-08-17T11:50:44;41.00;99.90
3684;DHT22;1858;48.716;9.648;2023-08-17T11:53:33;40.60;99.90
3684;DHT22;1858;48.716;9.648;2023-08-17T11:56:19;40.30;99.90
3684;DHT22;1858;48.716;9.648;2023-08-17T11:59:08;40.10;99.90
3684;DHT22;1858;48.716;9.648;2023-08-17T12:01:56;39.70;99.90
3684;DHT22;1858;48.716;9.648;2023-08-17T12:04:41;39.50;99.90
3684;DHT22;1858;48.716;9.648;2023-08-17T12:07:28;39.20;99.90
3684;DHT22;1858;48.716;9.648;2023-08-17T12:10:13;39.10;99.90
3684;DHT22;1858;48.716;9.648;2023-08-17T12:12:59;38.70;99.90
3684;DHT22;1858;48.716;9.648;2023-08-17T12:15:45;38.40;99.90
3684;DHT22;1858;48.716;9.648;2023-08-17T12:18:33;38.20;99.90
3684;DHT22;1858;48.716;9.648;2023-08-17T12:21:24;38.00;99.90
3684;DHT22;1858;48.716;9.648;2023-08-17T12:24:06;37.80;99.90
3684;DHT22;1858;48.716;9.648;2023-08-17T12:26:52;37.60;99.90
3684;DHT22;1858;48.716;9.648;2023-08-17T12:29:49;37.40;99.90
3684;DHT22;1858;48.716;9.648;2023-08-17T12:32:35;37.10;1.00
3684;DHT22;1858;48.716;9.648;2023-08-17T12:35:21;36.90;99.90
3684;DHT22;1858;48.716;9.648;2023-08-17T12:38:08;36.50;1.00
3684;DHT22;1858;48.716;9.648;2023-08-17T12:40:54;36.10;1.00
3684;DHT22;1858;48.716;9.648;2023-08-17T12:43:40;35.60;1.00
3684;DHT22;1858;48.716;9.648;2023-08-17T12:46:25;35.20;1.00
3684;DHT22;1858;48.716;9.648;2023-08-17T12:49:11;34.90;1.00
3684;DHT22;1858;48.716;9.648;2023-08-17T12:51:56;34.50;1.00
3684;DHT22;1858;48.716;9.648;2023-08-17T12:54:42;34.10;1.00
3684;DHT22;1858;48.716;9.648;2023-08-17T12:57:28;33.80;1.00
3684;DHT22;1858;48.716;9.648;2023-08-17T13:00:14;33.50;1.00
3684;DHT22;1858;48.716;9.648;2023-08-17T13:03:00;33.10;1.00
3684;DHT22;1858;48.716;9.648;2023-08-17T13:05:45;32.80;1.00
3684;DHT22;1858;48.716;9.648;2023-08-17T13:08:31;32.40;1.00
3684;DHT22;1858;48.716;9.648;2023-08-17T13:11:16;32.00;1.00
3684;DHT22;1858;48.716;9.648;2023-08-17T13:14:02;31.70;1.00
3684;DHT22;1858;48.716;9.648;2023-08-17T13:16:49;31.40;1.00
3684;DHT22;1858;48.716;9.648;2023-08-17T13:19:34;31.30;1.00
3684;DHT22;1858;48.716;9.648;2023-08-17T13:22:20;31.20;1.00
3684;DHT22;1858;48.716;9.648;2023-08-17T13:28:11;30.60;1.00
3684;DHT22;1858;48.716;9.648;2023-08-17T13:30:56;30.40;1.00
3684;DHT22;1858;48.716;9.648;2023-08-17T13:33:42;30.20;1.00
3684;DHT22;1858;48.716;9.648;2023-08-17T13:36:28;30.10;1.00
3684;DHT22;1858;48.716;9.648;2023-08-17T13:39:14;29.90;1.00
3684;DHT22;1858;48.716;9.648;2023-08-17T13:41:59;29.70;1.00
3684;DHT22;1858;48.716;9.648;2023-08-17T13:44:45;29.50;1.00
3684;DHT22;1858;48.716;9.648;2023-08-17T13:47:31;29.40;1.00
3684;DHT22;1858;48.716;9.648;2023-08-17T13:50:16;29.30;1.00
3684;DHT22;1858;48.716;9.648;2023-08-17T13:53:03;29.20;1.00
3684;DHT22;1858;48.716;9.648;2023-08-17T13:55:48;29.00;1.00
3684;DHT22;1858;48.716;9.648;2023-08-17T13:58:34;29.00;1.00
3684;DHT22;1858;48.716;9.648;2023-08-17T14:01:20;28.80;1.00
3684;DHT22;1858;48.716;9.648;2023-08-17T14:04:06;28.80;1.00
3684;DHT22;1858;48.716;9.648;2023-08-17T14:06:53;28.80;6.00
3684;DHT22;1858;48.716;9.648;2023-08-17T14:09:39;28.70;14.00
3684;DHT22;1858;48.716;9.648;2023-08-17T14:12:25;28.70;23.60
3684;DHT22;1858;48.716;9.648;2023-08-17T14:15:11;28.60;37.00
3684;DHT22;1858;48.716;9.648;2023-08-17T14:17:57;28.50;46.90
3684;DHT22;1858;48.716;9.648;2023-08-17T14:20:42;28.30;70.20
3684;DHT22;1858;48.716;9.648;2023-08-17T14:23:28;28.30;99.90
3684;DHT22;1858;48.716;9.648;2023-08-17T14:26:14;28.30;99.90
3684;DHT22;1858;48.716;9.648;2023-08-17T14:29:00;28.20;99.90
3684;DHT22;1858;48.716;9.648;2023-08-17T14:31:46;28.20;99.90
3684;DHT22;1858;48.716;9.648;2023-08-17T14:34:31;28.10;99.90
3684;DHT22;1858;48.716;9.648;2023-08-17T14:40:22;28.00;1.00
3684;DHT22;1858;48.716;9.648;2023-08-17T14:43:07;27.90;1.00
3684;DHT22;1858;48.716;9.648;2023-08-17T14:45:54;27.80;1.00
3684;DHT22;1858;48.716;9.648;2023-08-17T14:48:40;27.70;1.00
3684;DHT22;1858;48.716;9.648;2023-08-17T14:51:25;27.50;14.20
3684;DHT22;1858;48.716;9.648;2023-08-17T14:54:11;27.40;99.90
3684;DHT22;1858;48.716;9.648;2023-08-17T14:56:57;27.20;16.00
3684;DHT22;1858;48.716;9.648;2023-08-17T14:59:42;27.10;1.00
3684;DHT22;1858;48.716;9.648;2023-08-17T15:02:28;27.00;99.90
3684;DHT22;1858;48.716;9.648;2023-08-17T15:05:14;26.90;99.90
3684;DHT22;1858;48.716;9.648;2023-08-17T15:07:59;26.70;99.90
3684;DHT22;1858;48.716;9.648;2023-08-17T15:10:45;26.60;99.90
3684;DHT22;1858;48.716;9.648;2023-08-17T15:13:32;26.40;99.90
3684;DHT22;1858;48.716;9.648;2023-08-17T15:16:18;26.30;99.90
3684;DHT22;1858;48.716;9.648;2023-08-17T15:19:05;26.20;99.90
3684;DHT22;1858;48.716;9.648;2023-08-17T15:21:51;26.20;99.90
3684;DHT22;1858;48.716;9.648;2023-08-17T15:24:37;26.10;99.90
3684;DHT22;1858;48.716;9.648;2023-08-17T15:27:22;26.00;1.00
3684;DHT22;1858;48.716;9.648;2023-08-17T15:30:08;25.90;1.00
3684;DHT22;1858;48.716;9.648;2023-08-17T15:32:53;25.80;1.00
3684;DHT22;1858;48.716;9.648;2023-08-17T15:38:45;25.70;1.00
3684;DHT22;1858;48.716;9.648;2023-08-17T15:41:31;25.70;1.00
3684;DHT22;1858;48.716;9.648;2023-08-17T15:44:17;25.80;1.00
3684;DHT22;1858;48.716;9.648;2023-08-17T15:47:02;25.90;1.00
3684;DHT22;1858;48.716;9.648;2023-08-17T15:49:48;25.80;1.00
3684;DHT22;1858;48.716;9.648;2023-08-17T15:52:34;25.70;1.00
3684;DHT22;1858;48.716;9.648;2023-08-17T15:55:19;25.60;1.00
3684;DHT22;1858;48.716;9.648;2023-08-17T15:58:05;25.50;1.00
3684;DHT22;1858;48.716;9.648;2023-08-17T16:00:51;25.60;1.00
3684;DHT22;1858;48.716;9.648;2023-08-17T16:03:37;25.60;1.00
3684;DHT22;1858;48.716;9.648;2023-08-17T16:06:23;25.70;1.00
3684;DHT22;1858;48.716;9.648;2023-08-17T16:09:30;25.70;1.00
3684;DHT22;1858;48.716;9.648;2023-08-17T16:12:15;25.70;1.00
3684;DHT22;1858;48.716;9.648;2023-08-17T16:15:01;25.60;1.00
3684;DHT22;1858;48.716;9.648;2023-08-17T16:17:46;25.50;1.00
3684;DHT22;1858;48.716;9.648;2023-08-17T16:20:32;25.60;1.00
3684;DHT22;1858;48.716;9.648;2023-08-17T16:23:18;25.50;1.00
3684;DHT22;1858;48.716;9.648;2023-08-17T16:26:04;25.40;1.00
3684;DHT22;1858;48.716;9.648;2023-08-17T16:28:50;25.40;1.00
3684;DHT22;1858;48.716;9.648;2023-08-17T16:31:35;25.30;1.00
3684;DHT22;1858;48.716;9.648;2023-08-17T16:34:21;25.40;1.00
3684;DHT22;1858;48.716;9.648;2023-08-17T16:37:07;25.50;1.00
3684;DHT22;1858;48.716;9.648;2023-08-17T16:39:53;25.50;1.00
3684;DHT22;1858;48.716;9.648;2023-08-17T16:42:38;25.60;1.00
3684;DHT22;1858;48.716;9.648;2023-08-17T16:45:24;25.70;1.00
3684;DHT22;1858;48.716;9.648;2023-08-17T16:48:10;25.90;1.00
3684;DHT22;1858;48.716;9.648;2023-08-17T16:50:56;25.90;1.00
3684;DHT22;1858;48.716;9.648;2023-08-17T16:53:42;26.00;1.00
3684;DHT22;1858;48.716;9.648;2023-08-17T16:56:29;26.10;1.00
3684;DHT22;1858;48.716;9.648;2023-08-17T16:59:14;26.10;99.90
3684;DHT22;1858;48.716;9.648;2023-08-17T17:02:00;26.10;99.90
3684;DHT22;1858;48.716;9.648;2023-08-17T17:04:47;26.20;99.90
3684;DHT22;1858;48.716;9.648;2023-08-17T17:07:33;26.20;99.90
3684;DHT22;1858;48.716;9.648;2023-08-17T17:10:18;26.20;99.90
3684;DHT22;1858;48.716;9.648;2023-08-17T17:13:05;26.10;99.90
3684;DHT22;1858;48.716;9.648;2023-08-17T17:15:50;26.00;99.90
3684;DHT22;1858;48.716;9.648;2023-08-17T17:18:36;26.00;1.00
3684;DHT22;1858;48.716;9.648;2023-08-17T17:21:22;25.90;1.00
3684;DHT22;1858;48.716;9.648;2023-08-17T17:24:08;25.80;1.00
3684;DHT22;1858;48.716;9.648;2023-08-17T17:26:54;26.00;1.00
3684;DHT22;1858;48.716;9.648;2023-08-17T17:29:39;25.90;1.00
3684;DHT22;1858;48.716;9.648;2023-08-17T17:32:25;25.90;1.00
3684;DHT22;1858;48.716;9.648;2023-08-17T17:35:11;25.90;1.00
3684;DHT22;1858;48.716;9.648;2023-08-17T17:37:56;25.80;1.00
3684;DHT22;1858;48.716;9.648;2023-08-17T17:40:42;25.80;1.00
3684;DHT22;1858;48.716;9.648;2023-08-17T17:43:27;25.80;1.00
3684;DHT22;1858;48.716;9.648;2023-08-17T17:46:13;25.70;1.00
3684;DHT22;1858;48.716;9.648;2023-08-17T17:48:59;25.60;1.00
3684;DHT22;1858;48.716;9.648;2023-08-17T17:51:44;25.60;1.00
3684;DHT22;1858;48.716;9.648;2023-08-17T17:54:30;25.60;1.00
3684;DHT22;1858;48.716;9.648;2023-08-17T17:57:16;25.50;1.00
3684;DHT22;1858;48.716;9.648;2023-08-17T18:03:13;25.40;1.00
3684;DHT22;1858;48.716;9.648;2023-08-17T18:05:59;25.30;1.00
3684;DHT22;1858;48.716;9.648;2023-08-17T18:08:45;25.20;1.00
3684;DHT22;1858;48.716;9.648;2023-08-17T18:11:31;25.10;1.00
3684;DHT22;1858;48.716;9.648;2023-08-17T18:14:16;25.10;1.00
3684;DHT22;1858;48.716;9.648;2023-08-17T18:17:03;25.00;1.00
3684;DHT22;1858;48.716;9.648;2023-08-17T18:19:49;24.90;6.80
3684;DHT22;1858;48.716;9.648;2023-08-17T18:22:35;24.80;66.10
3684;DHT22;1858;48.716;9.648;2023-08-17T18:25:20;24.70;99.90
3684;DHT22;1858;48.716;9.648;2023-08-17T18:28:07;24.70;99.90
3684;DHT22;1858;48.716;9.648;2023-08-17T18:30:53;24.60;99.90
3684;DHT22;1858;48.716;9.648;2023-08-17T18:33:39;24.50;99.90
3684;DHT22;1858;48.716;9.648;2023-08-17T18:36:25;24.50;99.90
3684;DHT22;1858;48.716;9.648;2023-08-17T18:39:11;24.50;99.90
3684;DHT22;1858;48.716;9.648;2023-08-17T18:41:57;24.40;99.90
3684;DHT22;1858;48.716;9.648;2023-08-17T18:44:42;24.30;99.90
3684;DHT22;1858;48.716;9.648;2023-08-17T18:47:28;24.20;99.90
3684;DHT22;1858;48.716;9.648;2023-08-17T18:50:13;24.20;99.90
3684;DHT22;1858;48.716;9.648;2023-08-17T18:52:59;24.10;99.90
3684;DHT22;1858;48.716;9.648;2023-08-17T18:55:46;24.00;1.00
3684;DHT22;1858;48.716;9.648;2023-08-17T18:58:32;23.90;1.00
3684;DHT22;1858;48.716;9.648;2023-08-17T19:01:17;23.90;1.00
3684;DHT22;1858;48.716;9.648;2023-08-17T19:04:03;23.90;99.90